Tiempo atmosférico en la estación meteorológica de Villanueva De Los Infantes, Ciudad Real (870 m.)



Fecha
DESCASC
Temp. máxima en grados centígrados (hora)
DESCASC
Temp. mínima en grados centígrados (hora)
DESCASC
Temp. media en grados centígrados
DESCASC
Racha de viento máxima en m/sg (hora)
DESCASC
Velocidad máxima media en intervalos de 10 minutos(hora)
DESCASC
Precipitaciones diarias en mm
DESCASC
Precipitaciones de 00:00 a 06:00 en mm
DESCASC
Precipitaciones de 06:00 a 12:00 en mm
DESCASC
Precipitaciones de 12:00 a 18:00 en mm
DESCASC
Precipitaciones de 18:00 a 24:00 en mm
DESCASC
10-07-2020 34.4 (19:00) 15.7 (07:00) 25.1 10.83 (01:40) 8.06 (02:00) 0 0 0 0 0
09-07-2020 33 (15:40) 17.1 (07:20) 25.1 17.78 (22:10) 12.78 (21:40) 0 0 0 0 0
08-07-2020 38.8 (16:00) 23 (04:50) 30.9 14.17 (14:40) 8.89 (16:20) 0 0 0 0 0
07-07-2020 38.5 (18:30) 19.5 (07:00) 29 10.28 (18:40) 5.56 (20:00) 0 0 0 0 0
06-07-2020 36.9 (16:10) 19 (00:00) 28 9.17 (17:30) 4.72 (17:30) 0 0 0 0 0
05-07-2020 36.9 (18:50) 18.4 (00:00) 27.7 7.22 (20:00) 4.72 (21:00) 0 0 0 0 0
04-07-2020 35.6 (18:50) 15.6 (00:00) 25.6 7.5 (18:30) 5.28 (23:00) 0 0 0 0 0
03-07-2020 33.5 (17:40) 16.9 (07:00) 25.2 8.06 (16:40) 4.17 (16:40) 0 0 0 0 0
02-07-2020 33.3 (17:20) 17.2 (00:00) 25.3 13.89 (18:50) 7.22 (12:40) 0 0 0 0 0
01-07-2020 35 (17:50) 18.2 (00:00) 26.6 12.22 (20:50) 8.06 (20:50) 0 0 0 0 0
30-06-2020 37.4 (16:30) 19.8 (00:00) 28.6 11.39 (16:40) 7.5 (19:20) 0 0 0 0 0
29-06-2020 37.8 (17:50) 20 (00:00) 28.9 8.61 (16:30) 4.72 (22:50) 0 0 0 0 0
28-06-2020 35 (17:50) 18.7 (00:00) 26.9 8.06 (14:30) 4.17 (17:30) 0 0 0 0 0
27-06-2020 32.6 (18:40) 16.3 (00:00) 24.4 7.78 (17:10) 4.44 (17:10) 0 0 0 0 0
26-06-2020 32 (16:20) 17.6 (00:00) 24.8 13.61 (18:20) 6.67 (16:50) 0 0 0 0 0
25-06-2020 35.6 (17:30) 17.9 (00:00) 26.7 10.28 (19:00) 6.67 (18:30) 0 0 0 0 0
24-06-2020 34.9 (14:10) 21.6 (00:00) 28.3 13.89 (16:40) 10 (16:40) 0 0 0 0 0
23-06-2020 37.6 (16:50) 18 (00:00) 27.8 9.44 (18:30) 4.72 (18:40) 0 0 0 0 0
22-06-2020 36.3 (15:50) 18.2 (00:00) 27.3 12.5 (21:10) 9.72 (21:00) 0 0 0 0 0
21-06-2020 33.8 (16:50) 17.8 (00:00) 25.8 7.5 (14:50) 4.17 (15:20) 0 0 0 0 0
20-06-2020 32.5 (17:50) 14.5 (00:00) 23.5 9.44 (17:30) 5 (16:40) 0 0 0 0 0
19-06-2020 29.8 (17:50) 12.1 (00:00) 20.9 9.72 (17:40) 6.11 (17:40) 0 0 0 0 0
18-06-2020 29.6 (16:30) 13.5 (00:00) 21.6 10 (15:10) 5.28 (14:40) 0 0 0 0 0
17-06-2020 26.4 (17:20) 13.4 (00:00) 19.9 13.33 (14:30) 7.78 (13:20) 0 0 0 0 0
16-06-2020 26 (16:20) 15 (00:00) 20.5 14.44 (18:40) 6.94 (19:50) 0 0 0 0 0
15-06-2020 28.3 (18:40) 10.1 (00:00) 19.2 9.72 (17:40) 5.28 (18:30) 0 0 0 0 0
14-06-2020 26.8 (18:30) 12.8 (00:00) 19.8 9.44 (16:20) 5 (20:00) 0 0 0 0 0
13-06-2020 24.5 (18:00) 9.4 (00:00) 16.9 10 (01:00) 5.83 (00:50) 0 0 0 0 0
12-06-2020 20.6 (16:40) 9.8 (00:00) 15.2 14.72 (14:30) 8.33 (00:20) 3.2 3.2 0 0 0

Gráficas

Temp. máximas Temp. mínimas Temp. medias Precipitaciones Rachas de viento máximas Velocidades máximas media en intervalos de 10 minutos

Datos horarios

Fecha y hora oficial Temperatura (ºC) Velocidad del viento (km/h) Dirección del viento Racha (km/h) Dirección de racha Precipitación (mm) Presión (hPa) Tendencia (hPa) Humedad (%)
2020-07-11 23:00:00 26 10 Sudeste 30 Sudeste 0 -- -- 40
2020-07-11 22:00:00 27.7 13 Sudeste 33 Sudeste 0 -- -- 37
2020-07-11 21:00:00 30.9 21 Sudeste 37 Sudeste 0 -- -- 32
2020-07-11 20:00:00 35.5 15 Sudeste 30 Sudeste 0 -- -- 25
2020-07-11 19:00:00 36.5 15 Sur 35 Sudeste 0 -- -- 23
2020-07-11 18:00:00 37.3 12 Sur 32 Sudoeste 0 -- -- 21
2020-07-11 17:00:00 37.5 11 Sur 26 Sur 0 -- -- 21
2020-07-11 16:00:00 37.5 12 Sur 31 Sudoeste 0 -- -- 21
2020-07-11 15:00:00 36.2 7 Sudoeste 27 Sur 0 -- -- 21
2020-07-11 14:00:00 35.4 10 Sur 26 Sudeste 0 -- -- 22
2020-07-11 13:00:00 34.3 6 Sudoeste 22 Sur 0 -- -- 24
2020-07-11 12:00:00 33.4 9 Sur 23 Sur 0 -- -- 25
2020-07-11 11:00:00 31.3 6 Sur 13 Sur 0 -- -- 32
2020-07-11 10:00:00 28.4 6 Sudeste 13 Sur 0 -- -- 38
2020-07-11 09:00:00 25.3 6 Sur 13 Sur 0 -- -- 46
2020-07-11 08:00:00 22.1 7 Sudeste 13 Sudeste 0 -- -- 53
2020-07-11 07:00:00 19.5 7 Sudeste 13 Sur 0 -- -- 58
2020-07-11 06:00:00 19.4 7 Sudeste 13 Sudeste 0 -- -- 59
2020-07-11 05:00:00 20.3 8 Sudeste 13 Sudeste 0 -- -- 55
2020-07-11 04:00:00 20.8 7 Sudeste 12 Sudeste 0 -- -- 55
2020-07-11 03:00:00 21.5 6 Sudeste 14 Sudeste 0 -- -- 53
2020-07-11 02:00:00 22.1 7 Sudeste 17 Sudeste 0 -- -- 51
2020-07-11 01:00:00 23.4 9 Sudeste 21 Este 0 -- -- 46
2020-07-11 00:00:00 24.4 12 Sudeste 25 Este 0 -- -- 42
2020-07-10 23:00:00 26.5 20 Este 27 Este 0 -- -- 36
2020-07-10 22:00:00 27.6 15 Este 24 Este 0 -- -- 33
2020-07-10 21:00:00 30.3 17 Nordeste 25 Nordeste 0 -- -- 28
2020-07-10 20:00:00 32.3 10 Norte 22 Norte 0 -- -- 24
2020-07-10 19:00:00 34.4 9 Noroeste 24 Oeste 0 -- -- 19
2020-07-10 18:00:00 33.9 5 Norte 25 Norte 0 -- -- 21
2020-07-10 17:00:00 34 9 Noroeste 26 Norte 0 -- -- 21
2020-07-10 16:00:00 33.4 13 Norte 25 Noroeste 0 -- -- 23
2020-07-10 15:00:00 33 10 Noroeste 19 Oeste 0 -- -- 25
2020-07-10 14:00:00 32 6 Sudeste 19 Sudoeste 0 -- -- 28
2020-07-10 13:00:00 30.4 8 Noroeste 17 Sudoeste 0 -- -- 31
2020-07-10 12:00:00 28.9 8 Oeste 20 Sudoeste 0 -- -- 34
2020-07-10 11:00:00 26.3 8 Sudoeste 19 Sudoeste 0 -- -- 39
2020-07-10 10:00:00 23.8 8 Sudoeste 17 Sur 0 -- -- 47
2020-07-10 09:00:00 21.3 8 Sur 14 Sur 0 -- -- 52
2020-07-10 08:00:00 17.9 6 Sur 11 Sur 0 -- -- 61
2020-07-10 07:00:00 15.7 5 Sur 12 Sur 0 -- -- 64
2020-07-10 06:00:00 16.3 5 Sur 10 Sur 0 -- -- 64
2020-07-10 05:00:00 16.7 6 Sur 14 Sur 0 -- -- 63
2020-07-10 04:00:00 17.8 8 Sudeste 22 Sudeste 0 -- -- 61
2020-07-10 03:00:00 18.1 17 Sudeste 37 Este 0 -- -- 63
2020-07-10 02:00:00 18.5 29 Este 39 Este 0 -- -- 62
2020-07-10 01:00:00 18.5 26 Este 34 Nordeste 0 -- -- 63
2020-07-10 00:00:00 20 12 Norte 42 Este 0 -- -- 56
2020-07-09 23:00:00 20.3 27 Este 64 Este 0 -- -- 55
2020-07-09 22:00:00 21 37 Este 60 Este 0 -- -- 56
2020-07-09 21:00:00 24.8 35 Este 44 Este 0 -- -- 44
2020-07-09 20:00:00 26.9 24 Nordeste 34 Nordeste 0 -- -- 35
2020-07-09 19:00:00 28 18 Nordeste 32 Nordeste 0 -- -- 37
2020-07-09 18:00:00 29 18 Norte 27 Norte 0 -- -- 32
2020-07-09 17:00:00 31.7 13 Nordeste 28 Nordeste 0 -- -- 27
2020-07-09 16:00:00 30.8 6 Norte 26 Este 0 -- -- 26
2020-07-09 15:00:00 32.8 9 Sur 20 Sudoeste 0 -- -- 25
2020-07-09 14:00:00 30.1 6 Nordeste 17 Norte 0 -- -- 29
2020-07-09 13:00:00 30.1 9 Noroeste 18 Noroeste 0 -- -- 29
2020-07-09 12:00:00 28.2 12 Noroeste 20 Noroeste 0 -- -- 32
2020-07-09 11:00:00 26.1 6 Norte 13 Norte 0 -- -- 36
2020-07-09 10:00:00 25.4 4 Sudoeste 11 Sudeste 0 -- -- 37
2020-07-09 09:00:00 23 5 Sur 11 Sur 0 -- -- 43
2020-07-09 08:00:00 19 5 Sur 10 Sudeste 0 -- -- 52
2020-07-09 07:00:00 17.5 5 Sudeste 11 Sur 0 -- -- 52
2020-07-09 06:00:00 18.1 9 Sur 19 Sudeste 0 -- -- 50
2020-07-09 05:00:00 19.4 8 Sur 19 Sur 0 -- -- 47
2020-07-09 04:00:00 21.1 14 Sur 23 Sur 0 -- -- 43
2020-07-09 03:00:00 21.8 10 Sur 19 Sur 0 -- -- 40
2020-07-09 02:00:00 23.3 13 Sur 19 Sur 0 -- -- 40
2020-07-09 01:00:00 24 10 Sur 18 Sur 0 -- -- 46
2020-07-09 00:00:00 24.4 7 Sudeste 26 Sudeste 0 -- -- 46
2020-07-08 23:00:00 25.6 18 Este 35 Este 0 -- -- 44
2020-07-08 22:00:00 27 25 Este 37 Este 0 -- -- 42
2020-07-08 21:00:00 28.3 25 Este 36 Este 0 -- -- 37
2020-07-08 20:00:00 29.8 15 Este 46 Nordeste 0 -- -- 36
2020-07-08 19:00:00 30.5 26 Norte 42 Sudoeste 0 -- -- 36
2020-07-08 18:00:00 33 16 Sur 40 Sur 0 -- -- 29
2020-07-08 17:00:00 35.5 20 Sur 48 Sudoeste 0 -- -- 25
2020-07-08 16:00:00 38.8 27 Sudoeste 48 Sudoeste 0 -- -- 17
2020-07-08 15:00:00 37.1 26 Sudoeste 51 Sudoeste 0 -- -- 17
2020-07-08 14:00:00 37.8 22 Sudoeste 45 Sudoeste 0 -- -- 17
2020-07-08 13:00:00 37.6 15 Sudoeste 35 Sudoeste 0 -- -- 18
2020-07-08 12:00:00 37.3 10 Sur 29 Sur 0 -- -- 19
2020-07-08 11:00:00 31.8 8 Sur 26 Sur 0 -- -- 23
2020-07-08 10:00:00 29.7 10 Sur 45 Sudoeste 0 -- -- 29
2020-07-08 09:00:00 27.9 13 Sudeste 26 Sudeste 0 -- -- 30
2020-07-08 08:00:00 25.7 11 Sudeste 23 Este 0 -- -- 31
2020-07-08 07:00:00 23.3 4 Norte 19 Norte 0 -- -- 32
2020-07-08 06:00:00 23.1 5 Sur 11 Sudeste 0 -- -- 33
2020-07-08 05:00:00 23.1 6 Sudeste 13 Sudeste 0 -- -- 32
2020-07-08 04:00:00 23.6 7 Sudeste 12 Sur 0 -- -- 28
2020-07-08 03:00:00 24.7 6 Sudeste 13 Sur 0 -- -- 25
2020-07-08 02:00:00 27.2 7 Sudoeste 10 Sudoeste 0 -- -- 22
2020-07-08 01:00:00 27.3 6 Sudoeste 10 Sudoeste 0 -- -- 23
2020-07-08 00:00:00 28.5 4 Norte 8 Nordeste 0 -- -- 20
2020-07-07 23:00:00 29.5 6 Norte 16 Norte 0 -- -- 21
2020-07-07 22:00:00 31.4 9 Norte 16 Norte 0 -- -- 20
2020-07-07 21:00:00 34.1 11 Norte 28 Noroeste 0 -- -- 17
2020-07-07 20:00:00 36.4 20 Noroeste 33 Noroeste 0 -- -- 17
2020-07-07 19:00:00 37.9 16 Noroeste 37 Oeste 0 -- -- 16
2020-07-07 18:00:00 38 14 Norte 32 Oeste 0 -- -- 17
2020-07-07 17:00:00 38.1 10 Norte 29 Noroeste 0 -- -- 16
2020-07-07 16:00:00 37.3 15 Noroeste 32 Norte 0 -- -- 17
2020-07-07 15:00:00 37.2 13 Oeste 31 Oeste 0 -- -- 17
2020-07-07 14:00:00 35.8 7 Noroeste 28 Noroeste 0 -- -- 18
2020-07-07 13:00:00 35.3 8 Norte 20 Norte 0 -- -- 20
2020-07-07 12:00:00 33.8 10 Oeste 22 Oeste 0 -- -- 26
2020-07-07 11:00:00 30.8 11 Sudoeste 19 Sudoeste 0 -- -- 29
2020-07-07 10:00:00 28 10 Sudoeste 21 Sur 0 -- -- 34
2020-07-07 09:00:00 25.2 12 Sur 21 Sur 0 -- -- 40
2020-07-07 08:00:00 22.2 5 Sur 11 Sur 0 -- -- 45
2020-07-07 07:00:00 19.5 6 Sur 12 Sudeste 0 -- -- 45
2020-07-07 06:00:00 20.5 8 Sur 16 Sudeste 0 -- -- 41
2020-07-07 05:00:00 22.1 6 Sur 10 Sur 0 -- -- 35
2020-07-07 04:00:00 22.8 8 Sur 12 Sudeste 0 -- -- 33
2020-07-07 03:00:00 24.5 5 Sur 13 Sur 0 -- -- 30
2020-07-07 02:00:00 25.9 6 Sudeste 9 Sudeste 0 -- -- 28
2020-07-07 01:00:00 26.1 7 Sudeste 9 Sudeste 0 -- -- 28
2020-07-07 00:00:00 26.5 5 Sur 13 Sur 0 -- -- 28
2020-07-06 23:00:00 28.8 10 Este 13 Este 0 -- -- 25
2020-07-06 22:00:00 30 9 Este 13 Nordeste 0 -- -- 23
2020-07-06 21:00:00 33.1 12 Nordeste 20 Norte 0 -- -- 22
2020-07-06 20:00:00 35.1 5 Nordeste 23 Nordeste 0 -- -- 19
2020-07-06 19:00:00 36.1 13 Noroeste 26 Noroeste 0 -- -- 18
2020-07-06 18:00:00 36.6 6 Norte 33 Noroeste 0 -- -- 18
2020-07-06 17:00:00 36.2 7 Noroeste 27 Noroeste 0 -- -- 18
2020-07-06 16:00:00 36.3 5 Oeste 26 Noroeste 0 -- -- 18
2020-07-06 15:00:00 35.4 12 Noroeste 31 Noroeste 0 -- -- 19
2020-07-06 14:00:00 35 12 Noroeste 24 Oeste 0 -- -- 19
2020-07-06 13:00:00 33.8 7 Oeste 23 Sudoeste 0 -- -- 24
2020-07-06 12:00:00 32.2 11 Sudoeste 21 Sudoeste 0 -- -- 29
2020-07-06 11:00:00 29.8 12 Sudoeste 21 Oeste 0 -- -- 30
2020-07-06 10:00:00 27.1 10 Sudoeste 21 Sur 0 -- -- 37
2020-07-06 09:00:00 24.8 10 Sur 19 Sudoeste 0 -- -- 40
2020-07-06 08:00:00 21.4 4 Sur 12 Sur 0 -- -- 45
2020-07-06 07:00:00 19 7 Sur 14 Sur 0 -- -- 45
2020-07-06 06:00:00 19.5 7 Sur 15 Sur 0 -- -- 43
2020-07-06 05:00:00 20.1 7 Sur 15 Sur 0 -- -- 43
2020-07-06 04:00:00 21.1 9 Sur 19 Sur 0 -- -- 43
2020-07-06 03:00:00 21.9 12 Sur 18 Sur 0 -- -- 46
2020-07-06 02:00:00 23 5 Sur 12 Sur 0 -- -- 46
2020-07-06 01:00:00 24.1 5 Sur 10 Sudeste 0 -- -- 43
2020-07-06 00:00:00 25.4 5 Sur 12 Sudeste 0 -- -- 41
2020-07-05 23:00:00 27.3 8 Sudeste 17 Este 0 -- -- 37
2020-07-05 22:00:00 30.4 6 Sudeste 19 Nordeste 0 -- -- 30
2020-07-05 21:00:00 32.8 17 Norte 23 Norte 0 -- -- 20
2020-07-05 20:00:00 34.3 12 Norte 26 Noroeste 0 -- -- 21
2020-07-05 19:00:00 36.6 9 Oeste 19 Oeste 0 -- -- 19
2020-07-05 18:00:00 35.8 7 Nordeste 19 Sur 0 -- -- 19
2020-07-05 17:00:00 34.9 8 Este 21 Noroeste 0 -- -- 20
2020-07-05 16:00:00 33.8 6 Nordeste 21 Norte 0 -- -- 20
2020-07-05 15:00:00 35.5 7 Oeste 22 Noroeste 0 -- -- 20
2020-07-05 14:00:00 34.9 8 Noroeste 20 Oeste 0 -- -- 20
2020-07-05 13:00:00 34.3 8 Sur 16 Sudoeste 0 -- -- 23
2020-07-05 12:00:00 32.7 6 Sudoeste 14 Sudoeste 0 -- -- 27
2020-07-05 11:00:00 30 8 Sur 17 Sudoeste 0 -- -- 31
2020-07-05 10:00:00 27.3 11 Sudoeste 20 Sudoeste 0 -- -- 34
2020-07-05 09:00:00 24.8 8 Sur 15 Sudeste 0 -- -- 41
2020-07-05 08:00:00 20.9 7 Sudeste 13 Sur 0 -- -- 52
2020-07-05 07:00:00 18.4 7 Sudeste 12 Sur 0 -- -- 61
2020-07-05 06:00:00 19.4 11 Sur 17 Sur 0 -- -- 56
2020-07-05 05:00:00 20.1 8 Sur 17 Sur 0 -- -- 61
2020-07-05 04:00:00 20.9 10 Sur 14 Sur 0 -- -- 60
2020-07-05 03:00:00 21.8 6 Sudeste 12 Sudeste 0 -- -- 57
2020-07-05 02:00:00 22.7 8 Sudeste 14 Este 0 -- -- 51
2020-07-05 01:00:00 23.4 8 Sudeste 15 Este 0 -- -- 50
2020-07-05 00:00:00 24.3 11 Sudeste 25 Este 0 -- -- 45
2020-07-04 23:00:00 26.4 19 Este 24 Nordeste 0 -- -- 25
2020-07-04 22:00:00 26.8 12 Nordeste 18 Nordeste 0 -- -- 22
2020-07-04 21:00:00 31.3 12 Nordeste 24 Norte 0 -- -- 18
2020-07-04 20:00:00 34.2 6 Norte 18 Este 0 -- -- 15
2020-07-04 19:00:00 35.3 6 Noroeste 27 Oeste 0 -- -- 14
2020-07-04 18:00:00 35.2 9 Noroeste 18 Noroeste 0 -- -- 15
2020-07-04 17:00:00 34.4 9 Noroeste 17 Norte 0 -- -- 15
2020-07-04 16:00:00 34 8 Norte 23 Norte 0 -- -- 16
2020-07-04 15:00:00 33.8 4 Sudeste 22 Oeste 0 -- -- 16
2020-07-04 14:00:00 33 6 Oeste 19 Oeste 0 -- -- 18
2020-07-04 13:00:00 32.1 8 Sur 17 Sur 0 -- -- 20
2020-07-04 12:00:00 29.8 5 Sudoeste 20 Sudoeste 0 -- -- 25
2020-07-04 11:00:00 27.5 7 Sur 21 Sudoeste 0 -- -- 28
2020-07-04 10:00:00 24.3 13 Sudoeste 21 Sudoeste 0 -- -- 35
2020-07-04 09:00:00 22.1 10 Sur 19 Sur 0 -- -- 40
2020-07-04 08:00:00 18.7 5 Sur 10 Sudeste 0 -- -- 50
2020-07-04 07:00:00 15.6 4 Sur 14 Sur 0 -- -- 42
2020-07-04 06:00:00 16.3 5 Sur 14 Sur 0 -- -- 38
2020-07-04 05:00:00 17.2 5 Sur 12 Sudeste 0 -- -- 36
2020-07-04 04:00:00 18.2 10 Sur 13 Sudeste 0 -- -- 34
2020-07-04 03:00:00 20.9 4 Sudeste 12 Este 0 -- -- 30
2020-07-04 02:00:00 21.3 2 Nordeste 15 Noroeste 0 -- -- 30
2020-07-04 01:00:00 21.9 6 Sur 11 Este 0 -- -- 28
2020-07-04 00:00:00 22.6 8 Sudeste 12 Sudeste 0 -- -- 27
2020-07-03 23:00:00 25.1 8 Este 9 Nordeste 0 -- -- 24
2020-07-03 22:00:00 26.1 8 Nordeste 14 Norte 0 -- -- 24
2020-07-03 21:00:00 29.9 9 Norte 19 Noroeste 0 -- -- 20
2020-07-03 20:00:00 31.8 12 Noroeste 23 Oeste 0 -- -- 18
2020-07-03 19:00:00 32.5 14 Noroeste 27 Noroeste 0 -- -- 19
2020-07-03 18:00:00 33.4 10 Oeste 27 Oeste 0 -- -- 19
2020-07-03 17:00:00 32.7 7 Sudoeste 29 Noroeste 0 -- -- 21
2020-07-03 16:00:00 31.9 12 Oeste 25 Oeste 0 -- -- 21
2020-07-03 15:00:00 31.5 14 Oeste 25 Oeste 0 -- -- 23
2020-07-03 14:00:00 30.4 6 Norte 21 Oeste 0 -- -- 25
2020-07-03 13:00:00 28.9 8 Norte 19 Oeste 0 -- -- 27
2020-07-03 12:00:00 28.1 6 Sudoeste 17 Sudoeste 0 -- -- 28
2020-07-03 11:00:00 26.4 4 Sudeste 11 Sur 0 -- -- 31
2020-07-03 10:00:00 23.7 2 Sudoeste 7 Noroeste 0 -- -- 36
2020-07-03 09:00:00 21.5 3 Oeste 8 Oeste 0 -- -- 41
2020-07-03 08:00:00 18.9 3 Oeste 6 Sudoeste 0 -- -- 46
2020-07-03 07:00:00 16.9 5 Sur 8 Sur 0 -- -- 48
2020-07-03 06:00:00 18.1 4 Sudoeste 8 Sur 0 -- -- 46
2020-07-03 05:00:00 18.9 5 Sur 8 Oeste 0 -- -- 43
2020-07-03 04:00:00 19.9 6 Oeste 13 Noroeste 0 -- -- 43
2020-07-03 03:00:00 20.4 5 Noroeste 11 Noroeste 0 -- -- 37
2020-07-03 02:00:00 20.6 6 Noroeste 8 Noroeste 0 -- -- 34
2020-07-03 01:00:00 21.2 6 Noroeste 14 Noroeste 0 -- -- 30
2020-07-03 00:00:00 22.6 6 Norte 21 Noroeste 0 -- -- 28
2020-07-02 23:00:00 23.9 9 Norte 25 Noroeste 0 -- -- 25
2020-07-02 22:00:00 25.8 14 Noroeste 31 Noroeste 0 -- -- 24
2020-07-02 21:00:00 28.9 21 Noroeste 35 Noroeste 0 -- -- 23
2020-07-02 20:00:00 30.8 20 Noroeste 43 Noroeste 0 -- -- 22
2020-07-02 19:00:00 32 21 Noroeste 50 Oeste 0 -- -- 20
2020-07-02 18:00:00 32.6 22 Noroeste 40 Noroeste 0 -- -- 18
2020-07-02 17:00:00 33.2 20 Oeste 48 Noroeste 0 -- -- 17
2020-07-02 16:00:00 32.9 17 Oeste 39 Oeste 0 -- -- 18
2020-07-02 15:00:00 32.4 24 Oeste 44 Oeste 0 -- -- 20
2020-07-02 14:00:00 31.4 23 Oeste 45 Oeste 0 -- -- 22
2020-07-02 13:00:00 30.4 18 Oeste 39 Oeste 0 -- -- 27
2020-07-02 12:00:00 29.1 18 Oeste 36 Noroeste 0 -- -- 31
2020-07-02 11:00:00 27.3 8 Sudoeste 21 Sudoeste 0 -- -- 36
2020-07-02 10:00:00 24.4 13 Sudoeste 21 Sudoeste 0 -- -- 41
2020-07-02 09:00:00 22.3 10 Sudoeste 19 Sur 0 -- -- 45
2020-07-02 08:00:00 20 8 Sur 15 Sur 0 -- -- 48
2020-07-02 07:00:00 17.2 8 Sur 13 Sur 0 -- -- 53
2020-07-02 06:00:00 17.8 7 Sur 12 Sur 0 -- -- 47
2020-07-02 05:00:00 18.6 9 Sur 13 Sudeste 0 -- -- 44
2020-07-02 04:00:00 19.2 6 Sur 9 Sudeste 0 -- -- 40
2020-07-02 03:00:00 20.8 6 Sur 11 Sudoeste 0 -- -- 36
2020-07-02 02:00:00 22.7 6 Sudoeste 10 Sur 0 -- -- 33
2020-07-02 01:00:00 22.9 7 Sur 14 Sudoeste 0 -- -- 32
2020-07-02 00:00:00 25.1 11 Sudoeste 17 Oeste 0 -- -- 28
2020-07-01 23:00:00 26.6 12 Oeste 27 Oeste 0 -- -- 26
2020-07-01 22:00:00 27.9 18 Sudoeste 36 Sudoeste 0 -- -- 25
2020-07-01 21:00:00 30.7 27 Sudoeste 44 Sudoeste 0 -- -- 23
2020-07-01 20:00:00 32.9 28 Sudoeste 38 Sudoeste 0 -- -- 21
2020-07-01 19:00:00 34.2 17 Oeste 36 Sudoeste 0 -- -- 22
2020-07-01 18:00:00 34.6 20 Oeste 37 Sudoeste 0 -- -- 21
2020-07-01 17:00:00 34.5 15 Oeste 42 Sudoeste 0 -- -- 23
2020-07-01 16:00:00 34 21 Oeste 39 Oeste 0 -- -- 25
2020-07-01 15:00:00 33.7 13 Sudoeste 33 Sudoeste 0 -- -- 28
2020-07-01 14:00:00 32 12 Sudoeste 31 Sudoeste 0 -- -- 29
2020-07-01 13:00:00 30.9 14 Sudoeste 26 Sudoeste 0 -- -- 31
2020-07-01 12:00:00 29.2 12 Sudoeste 24 Sudoeste 0 -- -- 36
2020-07-01 11:00:00 26.6 12 Sudoeste 24 Sudoeste 0 -- -- 42
2020-07-01 10:00:00 23.7 13 Sudoeste 25 Sudoeste 0 -- -- 49
2020-07-01 09:00:00 22 13 Sur 22 Sudoeste 0 -- -- 55
2020-07-01 08:00:00 19.9 10 Sur 21 Sur 0 -- -- 64
2020-07-01 07:00:00 18.2 9 Sur 25 Sur 0 -- -- 70
2020-07-01 06:00:00 19.2 12 Sur 20 Sur 0 -- -- 67
2020-07-01 05:00:00 19.9 10 Sur 21 Sur 0 -- -- 61
2020-07-01 04:00:00 20.6 11 Sur 18 Sur 0 -- -- 52
2020-07-01 03:00:00 20.7 5 Sur 16 Sur 0 -- -- 41
2020-07-01 02:00:00 21.8 11 Sur 14 Sur 0 -- -- 37
2020-07-01 01:00:00 24 8 Sudoeste 22 Oeste 0 -- -- 34
2020-07-01 00:00:00 25.9 15 Sudoeste 25 Sudoeste 0 -- -- 31
2020-06-30 23:00:00 27.2 17 Sudoeste 22 Sudoeste 0 -- -- 29
2020-06-30 22:00:00 29.5 14 Sudoeste 27 Sudoeste 0 -- -- 26
2020-06-30 21:00:00 32.9 21 Oeste 34 Oeste 0 -- -- 21
2020-06-30 20:00:00 34.8 24 Oeste 39 Sudoeste 0 -- -- 20
2020-06-30 19:00:00 35.8 21 Oeste 40 Oeste 0 -- -- 20
2020-06-30 18:00:00 36.2 26 Oeste 40 Oeste 0 -- -- 19
2020-06-30 17:00:00 36.8 25 Sudoeste 41 Sudoeste 0 -- -- 20
2020-06-30 16:00:00 37.1 19 Sudoeste 34 Sudoeste 0 -- -- 20
2020-06-30 15:00:00 36.4 17 Oeste 33 Sudoeste 0 -- -- 21
2020-06-30 14:00:00 35.8 12 Oeste 23 Sudoeste 0 -- -- 22
2020-06-30 13:00:00 34.6 8 Sur 20 Sur 0 -- -- 23
2020-06-30 12:00:00 32.9 9 Sudoeste 20 Sudoeste 0 -- -- 26
2020-06-30 11:00:00 31 9 Sudoeste 20 Sur 0 -- -- 30
2020-06-30 10:00:00 28.6 9 Sur 19 Sur 0 -- -- 33
2020-06-30 09:00:00 25.7 8 Sur 15 Sur 0 -- -- 36
2020-06-30 08:00:00 22.2 6 Sur 14 Sur 0 -- -- 42
2020-06-30 07:00:00 19.8 8 Sur 18 Sur 0 -- -- 42
2020-06-30 06:00:00 20.8 11 Sur 19 Sur 0 -- -- 38
2020-06-30 05:00:00 21.2 10 Sur 16 Sur 0 -- -- 37
2020-06-30 04:00:00 21.7 6 Sur 12 Sudeste 0 -- -- 35
2020-06-30 03:00:00 22.3 7 Sur 11 Sur 0 -- -- 32
2020-06-30 02:00:00 23.2 6 Sur 10 Sur 0 -- -- 28
2020-06-30 01:00:00 25 7 Sur 14 Sur 0 -- -- 26
2020-06-30 00:00:00 26.7 4 Sudoeste 19 Oeste 0 -- -- 24
2020-06-29 23:00:00 29.3 16 Sudoeste 26 Sudoeste 0 -- -- 21
2020-06-29 22:00:00 30.1 13 Sudoeste 25 Oeste 0 -- -- 19
2020-06-29 21:00:00 34.4 13 Sudoeste 23 Sudoeste 0 -- -- 18
2020-06-29 20:00:00 36.1 10 Sudoeste 30 Oeste 0 -- -- 17
2020-06-29 19:00:00 37.3 14 Sudoeste 30 Oeste 0 -- -- 17
2020-06-29 18:00:00 37.8 17 Sudoeste 27 Oeste 0 -- -- 16
2020-06-29 17:00:00 37.5 14 Sudoeste 31 Sudoeste 0 -- -- 18
2020-06-29 16:00:00 37 8 Noroeste 28 Sudoeste 0 -- -- 20
2020-06-29 15:00:00 36.1 11 Sudoeste 25 Sudoeste 0 -- -- 22
2020-06-29 14:00:00 34.7 12 Sudoeste 24 Sudoeste 0 -- -- 23
2020-06-29 13:00:00 34 9 Sudoeste 24 Sudoeste 0 -- -- 25
2020-06-29 12:00:00 32.7 5 Sur 13 Sur 0 -- -- 28
2020-06-29 11:00:00 30.1 6 Sudoeste 16 Sudoeste 0 -- -- 31
2020-06-29 10:00:00 27.7 6 Sur 16 Sur 0 -- -- 35
2020-06-29 09:00:00 25.5 6 Sur 11 Sur 0 -- -- 37
2020-06-29 08:00:00 23.2 6 Sur 8 Sur 0 -- -- 40
2020-06-29 07:00:00 20 5 Sur 9 Sur 0 -- -- 46
2020-06-29 06:00:00 20.3 6 Sur 9 Sur 0 -- -- 44
2020-06-29 05:00:00 22.5 5 Sur 6 Sur 0 -- -- 40
2020-06-29 04:00:00 23 5 Sur 8 Sur 0 -- -- 39
2020-06-29 03:00:00 24.1 4 Noroeste 5 Norte 0 -- -- 38
2020-06-29 02:00:00 25.1 3 Noroeste 5 Nordeste 0 -- -- 35
2020-06-29 01:00:00 26 4 Norte 8 Noroeste 0 -- -- 34
2020-06-29 00:00:00 26.1 4 Este 7 Sur 0 -- -- 34
2020-06-28 23:00:00 27.5 5 Nordeste 9 Norte 0 -- -- 32
2020-06-28 22:00:00 29.2 6 Norte 14 Norte 0 -- -- 30
2020-06-28 21:00:00 32.5 10 Noroeste 18 Noroeste 0 -- -- 26
2020-06-28 20:00:00 34 8 Norte 24 Norte 0 -- -- 25
2020-06-28 19:00:00 34.6 9 Noroeste 21 Noroeste 0 -- -- 24
2020-06-28 18:00:00 35 11 Noroeste 25 Noroeste 0 -- -- 24
2020-06-28 17:00:00 34.8 9 Norte 25 Sudoeste 0 -- -- 23
2020-06-28 16:00:00 33.7 13 Noroeste 22 Noroeste 0 -- -- 25
2020-06-28 15:00:00 33.5 10 Oeste 29 Sur 0 -- -- 25
2020-06-28 14:00:00 32.1 8 Sudoeste 20 Sudoeste 0 -- -- 26
2020-06-28 13:00:00 31.5 6 Oeste 21 Sudoeste 0 -- -- 29
2020-06-28 12:00:00 29.7 5 Noroeste 14 Noroeste 0 -- -- 32
2020-06-28 11:00:00 28.3 5 Noroeste 10 Noroeste 0 -- -- 35
2020-06-28 10:00:00 26.4 3 Noroeste 8 Noroeste 0 -- -- 39
2020-06-28 09:00:00 23.6 2 Sudoeste 5 Sur 0 -- -- 43
2020-06-28 08:00:00 21.3 2 Sur 6 Sur 0 -- -- 45
2020-06-28 07:00:00 18.7 5 Sur 7 Sur 0 -- -- 50
2020-06-28 06:00:00 19.5 6 Sur 7 Sur 0 -- -- 48
2020-06-28 05:00:00 20.1 6 Sur 7 Sur 0 -- -- 46
2020-06-28 04:00:00 21 3 Sudoeste 6 Sur 0 -- -- 44
2020-06-28 03:00:00 21.5 4 Sudoeste 6 Oeste 0 -- -- 43
2020-06-28 02:00:00 22.4 4 Noroeste 8 Noroeste 0 -- -- 41
2020-06-28 01:00:00 23 0 Calma 8 Noroeste 0 -- -- 40
2020-06-28 00:00:00 23.8 6 Norte 12 Norte 0 -- -- 38
2020-06-27 23:00:00 25.1 6 Norte 16 Norte 0 -- -- 36
2020-06-27 22:00:00 26.7 9 Norte 19 Noroeste 0 -- -- 33
2020-06-27 21:00:00 29.7 13 Noroeste 23 Noroeste 0 -- -- 29
2020-06-27 20:00:00 31.5 12 Noroeste 27 Oeste 0 -- -- 26
2020-06-27 19:00:00 32.3 11 Oeste 25 Oeste 0 -- -- 25
2020-06-27 18:00:00 32 12 Noroeste 28 Noroeste 0 -- -- 25
2020-06-27 17:00:00 31.8 10 Oeste 27 Noroeste 0 -- -- 25
2020-06-27 16:00:00 30.8 10 Oeste 26 Oeste 0 -- -- 25
2020-06-27 15:00:00 29.8 10 Oeste 23 Noroeste 0 -- -- 27
2020-06-27 14:00:00 29 12 Oeste 26 Oeste 0 -- -- 28
2020-06-27 13:00:00 27.6 8 Oeste 23 Oeste 0 -- -- 29
2020-06-27 12:00:00 26.3 8 Noroeste 18 Noroeste 0 -- -- 32
2020-06-27 11:00:00 24.8 7 Oeste 17 Noroeste 0 -- -- 36
2020-06-27 10:00:00 21.6 8 Oeste 15 Sudoeste 0 -- -- 43
2020-06-27 09:00:00 19.5 5 Oeste 11 Sudoeste 0 -- -- 44
2020-06-27 08:00:00 17.3 5 Sur 8 Sur 0 -- -- 48
2020-06-27 07:00:00 16.3 5 Sur 9 Sudoeste 0 -- -- 49
2020-06-27 06:00:00 16.5 6 Sudoeste 10 Sudoeste 0 -- -- 47
2020-06-27 05:00:00 17.3 8 Sur 12 Oeste 0 -- -- 45
2020-06-27 04:00:00 18.9 6 Oeste 14 Oeste 0 -- -- 42
2020-06-27 03:00:00 19.4 9 Oeste 16 Oeste 0 -- -- 41
2020-06-27 02:00:00 20.3 8 Oeste 12 Oeste 0 -- -- 39
2020-06-27 01:00:00 21.2 5 Noroeste 13 Noroeste 0 -- -- 35
2020-06-27 00:00:00 22.2 7 Noroeste 15 Oeste 0 -- -- 33
2020-06-26 23:00:00 23.2 9 Noroeste 20 Noroeste 0 -- -- 32
2020-06-26 22:00:00 25.1 11 Noroeste 26 Noroeste 0 -- -- 32
2020-06-26 21:00:00 27.6 19 Oeste 34 Oeste 0 -- -- 32
2020-06-26 20:00:00 30 18 Oeste 35 Oeste 0 -- -- 25
2020-06-26 19:00:00 30.8 23 Sudoeste 49 Sudoeste 0 -- -- 27
2020-06-26 18:00:00 31.6 21 Sudoeste 45 Sudoeste 0 -- -- 23
2020-06-26 17:00:00 31.8 19 Sudoeste 42 Sudoeste 0 -- -- 20
2020-06-26 16:00:00 31.4 19 Oeste 39 Sudoeste 0 -- -- 26
2020-06-26 15:00:00 30.9 19 Sudoeste 33 Oeste 0 -- -- 27
2020-06-26 14:00:00 30.5 14 Sudoeste 33 Sudoeste 0 -- -- 33
2020-06-26 13:00:00 29.4 11 Sudoeste 27 Sudoeste 0 -- -- 37
2020-06-26 12:00:00 27.6 9 Sudoeste 18 Sudoeste 0 -- -- 43
2020-06-26 11:00:00 25.9 8 Sudoeste 16 Sudoeste 0 -- -- 47
2020-06-26 10:00:00 23.3 11 Sudoeste 19 Sur 0 -- -- 59
2020-06-26 09:00:00 21.2 10 Sur 18 Sur 0 -- -- 69
2020-06-26 08:00:00 18.9 5 Sur 17 Sur 0 -- -- 77
2020-06-26 07:00:00 17.6 12 Sur 17 Sur 0 -- -- 79
2020-06-26 06:00:00 18.3 6 Sur 22 Sur 0 -- -- 74
2020-06-26 05:00:00 19.4 10 Sur 17 Sur 0 -- -- 70
2020-06-26 04:00:00 20.4 10 Sur 21 Sur 0 -- -- 67
2020-06-26 03:00:00 21.5 11 Sur 21 Sur 0 -- -- 59
2020-06-26 02:00:00 21.9 10 Sur 17 Sur 0 -- -- 53
2020-06-26 01:00:00 23 10 Sur 15 Sur 0 -- -- 45
2020-06-26 00:00:00 23.8 8 Sur 16 Sur 0 -- -- 40
2020-06-25 23:00:00 25.9 7 Sudoeste 24 Sudoeste 0 -- -- 33
2020-06-25 22:00:00 28.3 13 Sudoeste 26 Oeste 0 -- -- 29
2020-06-25 21:00:00 31.7 16 Sudoeste 30 Sudoeste 0 -- -- 23
2020-06-25 20:00:00 33.5 18 Sudoeste 32 Sudoeste 0 -- -- 20
2020-06-25 19:00:00 34.5 19 Oeste 37 Oeste 0 -- -- 18
2020-06-25 18:00:00 35.2 17 Sudoeste 35 Sudoeste 0 -- -- 18
2020-06-25 17:00:00 34.9 16 Sudoeste 36 Oeste 0 -- -- 19
2020-06-25 16:00:00 35 11 Oeste 30 Sudoeste 0 -- -- 22
2020-06-25 15:00:00 33.8 8 Sudoeste 35 Sudoeste 0 -- -- 23
2020-06-25 14:00:00 33.3 9 Oeste 22 Oeste 0 -- -- 23
2020-06-25 13:00:00 31.5 4 Noroeste 17 Oeste 0 -- -- 26
2020-06-25 12:00:00 30.3 5 Sudeste 14 Noroeste 0 -- -- 29
2020-06-25 11:00:00 28.5 4 Noroeste 12 Sudoeste 0 -- -- 33
2020-06-25 10:00:00 26 5 Sudoeste 12 Sudoeste 0 -- -- 37
2020-06-25 09:00:00 24.4 5 Sur 10 Sur 0 -- -- 44
2020-06-25 08:00:00 20.8 4 Sudeste 8 Sudeste 0 -- -- 50
2020-06-25 07:00:00 18 4 Sur 8 Sur 0 -- -- 54
2020-06-25 06:00:00 18.4 4 Sur 13 Sur 0 -- -- 50
2020-06-25 05:00:00 18.9 6 Sur 14 Sur 0 -- -- 47
2020-06-25 04:00:00 21 12 Sur 20 Sur 0 -- -- 42
2020-06-25 03:00:00 21.3 13 Sur 21 Sur 0 -- -- 41
2020-06-25 02:00:00 22 10 Sur 22 Sur 0 -- -- 39
2020-06-25 01:00:00 22.3 11 Sur 21 Sur 0 -- -- 38
2020-06-25 00:00:00 22.9 10 Sudeste 22 Sudeste 0 -- -- 37
2020-06-24 23:00:00 24.3 11 Sudeste 19 Sudeste 0 -- -- 35
2020-06-24 22:00:00 25.5 7 Sudeste 24 Sur 0 -- -- 33
2020-06-24 21:00:00 29 11 Sudeste 32 Sudeste 0 -- -- 29
2020-06-24 20:00:00 29.9 14 Sur 30 Sur 0 -- -- 26
2020-06-24 19:00:00 33.4 16 Sudeste 36 Este 0 -- -- 24
2020-06-24 18:00:00 32.3 27 Este 45 Este 0 -- -- 24
2020-06-24 17:00:00 33.5 29 Este 50 Este 0 -- -- 24
2020-06-24 16:00:00 32.8 33 Nordeste 46 Nordeste 0 -- -- 26
2020-06-24 15:00:00 33.1 32 Nordeste 48 Nordeste 0 -- -- 23
2020-06-24 14:00:00 34.3 8 Sudeste 21 Este 0 -- -- 21
2020-06-24 13:00:00 34.1 10 Sudeste 24 Este 0 -- -- 22
2020-06-24 12:00:00 32.1 8 Sudeste 16 Sur 0 -- -- 24
2020-06-24 11:00:00 28.8 7 Sur 21 Sur 0 -- -- 30
2020-06-24 10:00:00 27.5 6 Sur 13 Sur 0 -- -- 32
2020-06-24 09:00:00 23.6 6 Sur 11 Sur 0 -- -- 41
2020-06-24 08:00:00 21.7 6 Sur 11 Sudoeste 0 -- -- 45
2020-06-24 07:00:00 22.1 9 Oeste 12 Oeste 0 -- -- 43
2020-06-24 06:00:00 22.3 6 Norte 30 Oeste 0 -- -- 43
2020-06-24 05:00:00 22.6 13 Sudeste 28 Sudeste 0 -- -- 42
2020-06-24 04:00:00 21.9 17 Sur 23 Sur 0 -- -- 44
2020-06-24 03:00:00 22.4 8 Sur 19 Sur 0 -- -- 44
2020-06-24 02:00:00 23.7 6 Sur 22 Sur 0 -- -- 42
2020-06-24 01:00:00 24.9 9 Sur 22 Sudeste 0 -- -- 41
2020-06-24 00:00:00 25.3 13 Sudeste 24 Este 0 -- -- 41
2020-06-23 23:00:00 26 14 Este 21 Sudeste 0 -- -- 39
2020-06-23 22:00:00 28.5 7 Sur 25 Sudeste 0 -- -- 39
2020-06-23 21:00:00 31 11 Sudeste 22 Este 0 -- -- 31
2020-06-23 20:00:00 33.8 11 Sudeste 29 Sudeste 0 -- -- 25
2020-06-23 19:00:00 35.3 12 Sudeste 34 Sudeste 0 -- -- 22
2020-06-23 18:00:00 36.7 6 Sur 24 Nordeste 0 -- -- 19
2020-06-23 17:00:00 37.6 6 Oeste 21 Sudoeste 0 -- -- 18
2020-06-23 16:00:00 36.6 10 Sudoeste 30 Sudoeste 0 -- -- 19
2020-06-23 15:00:00 35.1 12 Este 24 Este 0 -- -- 20
2020-06-23 14:00:00 35 6 Sudeste 20 Sur 0 -- -- 20
2020-06-23 13:00:00 34.2 7 Sudoeste 18 Este 0 -- -- 21
2020-06-23 12:00:00 32 6 Noroeste 13 Noroeste 0 -- -- 22
2020-06-23 11:00:00 30.6 6 Sur 17 Sur 0 -- -- 24
2020-06-23 10:00:00 28.1 8 Sur 17 Sur 0 -- -- 29
2020-06-23 09:00:00 25.1 6 Sur 13 Sur 0 -- -- 36
2020-06-23 08:00:00 21.3 5 Sudeste 11 Sudeste 0 -- -- 42
2020-06-23 07:00:00 18 6 Sur 14 Sudeste 0 -- -- 49
2020-06-23 06:00:00 18.4 9 Sur 14 Sur 0 -- -- 49
2020-06-23 05:00:00 18.5 8 Sudeste 14 Sur 0 -- -- 50
2020-06-23 04:00:00 19.3 5 Sur 16 Sur 0 -- -- 49
2020-06-23 03:00:00 20.4 10 Sur 15 Sur 0 -- -- 47
2020-06-23 02:00:00 21.2 9 Sudeste 19 Sudeste 0 -- -- 47
2020-06-23 01:00:00 22.4 10 Sudeste 19 Sudeste 0 -- -- 46
2020-06-23 00:00:00 23.1 12 Sudeste 32 Este 0 -- -- 45
2020-06-22 23:00:00 24.1 21 Este 40 Este 0 -- -- 43
2020-06-22 22:00:00 26.3 30 Este 45 Este 0 -- -- 39
2020-06-22 21:00:00 29.7 35 Este 44 Este 0 -- -- 34
2020-06-22 20:00:00 32.8 24 Nordeste 34 Nordeste 0 -- -- 26
2020-06-22 19:00:00 32.6 19 Nordeste 28 Este 0 -- -- 23
2020-06-22 18:00:00 35.1 6 Norte 17 Noroeste 0 -- -- 19
2020-06-22 17:00:00 34.8 10 Norte 23 Oeste 0 -- -- 19
2020-06-22 16:00:00 35.8 9 Sudoeste 27 Sudoeste 0 -- -- 18
2020-06-22 15:00:00 34.6 7 Este 23 Sudoeste 0 -- -- 19
2020-06-22 14:00:00 34.9 9 Sudeste 22 Sudoeste 0 -- -- 20
2020-06-22 13:00:00 33.7 7 Sur 23 Este 0 -- -- 21
2020-06-22 12:00:00 33 8 Sur 21 Sudoeste 0 -- -- 24
2020-06-22 11:00:00 31.4 5 Este 15 Este 0 -- -- 25
2020-06-22 10:00:00 29.1 9 Este 24 Este 0 -- -- 31
2020-06-22 09:00:00 25.4 15 Este 22 Sudeste 0 -- -- 39
2020-06-22 08:00:00 20.9 18 Este 32 Este 0 -- -- 46
2020-06-22 07:00:00 18.2 29 Este 37 Este 0 -- -- 51
2020-06-22 06:00:00 21 6 Este 12 Este 0 -- -- 33
2020-06-22 05:00:00 21.4 6 Este 8 Nordeste 0 -- -- 31
2020-06-22 04:00:00 21.9 2 Norte 4 Norte 0 -- -- 30
2020-06-22 03:00:00 22.7 0 Calma 8 Este 0 -- -- 29
2020-06-22 02:00:00 22.9 4 Este 9 Sudeste 0 -- -- 29
2020-06-22 01:00:00 23.8 5 Sur 7 Sur 0 -- -- 28
2020-06-22 00:00:00 24.4 6 Nordeste 10 Nordeste 0 -- -- 27
2020-06-21 23:00:00 24.6 8 Nordeste 12 Nordeste 0 -- -- 27
2020-06-21 22:00:00 27 6 Norte 13 Norte 0 -- -- 25
2020-06-21 21:00:00 30.9 9 Norte 17 Norte 0 -- -- 21
2020-06-21 20:00:00 33.1 7 Noroeste 19 Noroeste 0 -- -- 20
2020-06-21 19:00:00 33.3 10 Norte 24 Noroeste 0 -- -- 18
2020-06-21 18:00:00 33.5 5 Norte 24 Noroeste 0 -- -- 18
2020-06-21 17:00:00 33.1 14 Norte 24 Norte 0 -- -- 19
2020-06-21 16:00:00 32.9 7 Noroeste 26 Oeste 0 -- -- 18
2020-06-21 15:00:00 32.1 6 Sudeste 27 Oeste 0 -- -- 21
2020-06-21 14:00:00 31.7 13 Oeste 25 Sudoeste 0 -- -- 22
2020-06-21 13:00:00 30.7 9 Norte 20 Noroeste 0 -- -- 23
2020-06-21 12:00:00 29.4 5 Noroeste 11 Norte 0 -- -- 24
2020-06-21 11:00:00 27.5 4 Noroeste 10 Oeste 0 -- -- 27
2020-06-21 10:00:00 25.2 4 Noroeste 8 Noroeste 0 -- -- 28
2020-06-21 09:00:00 22.3 3 Sur 6 Sur 0 -- -- 31
2020-06-21 08:00:00 20.3 5 Sur 8 Sur 0 -- -- 32
2020-06-21 07:00:00 17.8 6 Sur 11 Sur 0 -- -- 35
2020-06-21 06:00:00 18.3 6 Sur 8 Sur 0 -- -- 34
2020-06-21 05:00:00 18.9 6 Sudeste 8 Sudeste 0 -- -- 33
2020-06-21 04:00:00 20.4 4 Sudoeste 6 Oeste 0 -- -- 32
2020-06-21 03:00:00 21 4 Sudoeste 9 Noroeste 0 -- -- 31
2020-06-21 02:00:00 21.8 5 Oeste 9 Oeste 0 -- -- 29
2020-06-21 01:00:00 22.5 5 Oeste 7 Oeste 0 -- -- 29
2020-06-21 00:00:00 23.3 5 Norte 17 Norte 0 -- -- 28
2020-06-20 23:00:00 23.9 7 Norte 14 Noroeste 0 -- -- 28
2020-06-20 22:00:00 26 9 Norte 21 Norte 0 -- -- 26
2020-06-20 21:00:00 29.5 12 Norte 22 Oeste 0 -- -- 23
2020-06-20 20:00:00 31.2 13 Noroeste 27 Oeste 0 -- -- 20
2020-06-20 19:00:00 32 13 Noroeste 26 Noroeste 0 -- -- 19
2020-06-20 18:00:00 32.3 14 Noroeste 34 Noroeste 0 -- -- 20
2020-06-20 17:00:00 32.1 8 Noroeste 32 Noroeste 0 -- -- 20
2020-06-20 16:00:00 31.3 7 Nordeste 27 Noroeste 0 -- -- 22
2020-06-20 15:00:00 31.2 15 Sudoeste 31 Oeste 0 -- -- 22
2020-06-20 14:00:00 30 9 Oeste 22 Oeste 0 -- -- 23
2020-06-20 13:00:00 28.9 10 Oeste 28 Noroeste 0 -- -- 24
2020-06-20 12:00:00 27.6 8 Oeste 18 Noroeste 0 -- -- 26
2020-06-20 11:00:00 25.7 5 Noroeste 12 Sudoeste 0 -- -- 27
2020-06-20 10:00:00 23.1 5 Sudoeste 13 Sur 0 -- -- 34
2020-06-20 09:00:00 19.9 6 Sur 12 Sur 0 -- -- 46
2020-06-20 08:00:00 17.3 5 Sur 10 Sur 0 -- -- 50
2020-06-20 07:00:00 14.5 5 Sur 9 Sur 0 -- -- 55
2020-06-20 06:00:00 14.8 6 Sur 10 Sur 0 -- -- 54
2020-06-20 05:00:00 15 6 Sur 10 Sudeste 0 -- -- 51
2020-06-20 04:00:00 16 5 Sur 11 Sudeste 0 -- -- 48
2020-06-20 03:00:00 17 7 Sur 10 Sur 0 -- -- 46
2020-06-20 02:00:00 18.5 7 Sur 10 Sur 0 -- -- 43
2020-06-20 01:00:00 20 7 Sur 10 Oeste 0 -- -- 40
2020-06-20 00:00:00 21.7 5 Oeste 18 Oeste 0 -- -- 38
2020-06-19 23:00:00 23 6 Noroeste 20 Oeste 0 -- -- 35
2020-06-19 22:00:00 24 14 Sudoeste 21 Sudoeste 0 -- -- 31
2020-06-19 21:00:00 26.6 13 Sudoeste 21 Oeste 0 -- -- 29
2020-06-19 20:00:00 28.8 8 Sudoeste 30 Oeste 0 -- -- 27
2020-06-19 19:00:00 29.1 6 Sudoeste 26 Oeste 0 -- -- 28
2020-06-19 18:00:00 29.8 14 Sudoeste 35 Sudoeste 0 -- -- 27
2020-06-19 17:00:00 27.5 11 Sudoeste 23 Sudoeste 0 -- -- 30
2020-06-19 16:00:00 28.2 19 Sudoeste 31 Oeste 0 -- -- 28
2020-06-19 15:00:00 28.1 8 Noroeste 27 Oeste 0 -- -- 28
2020-06-19 14:00:00 27.4 13 Oeste 25 Sudoeste 0 -- -- 29
2020-06-19 13:00:00 26.4 10 Oeste 23 Sudoeste 0 -- -- 32
2020-06-19 12:00:00 24.6 7 Sudoeste 22 Oeste 0 -- -- 40
2020-06-19 11:00:00 22.3 11 Sudoeste 21 Sudoeste 0 -- -- 44
2020-06-19 10:00:00 19.2 9 Sudoeste 20 Sur 0 -- -- 53
2020-06-19 09:00:00 16.8 11 Sur 20 Sur 0 -- -- 59
2020-06-19 08:00:00 14.8 12 Sur 19 Sur 0 -- -- 64
2020-06-19 07:00:00 12.2 11 Sur 17 Sur 0 -- -- 70
2020-06-19 06:00:00 12.8 9 Sur 17 Sur 0 -- -- 65
2020-06-19 05:00:00 13.8 10 Sur 16 Sur 0 -- -- 61
2020-06-19 04:00:00 14.7 5 Sur 11 Sur 0 -- -- 49
2020-06-19 03:00:00 16.8 7 Sur 12 Sur 0 -- -- 44
2020-06-19 02:00:00 18 7 Sudoeste 12 Sudoeste 0 -- -- 42
2020-06-19 01:00:00 18.9 6 Sur 9 Sur 0 -- -- 39
2020-06-19 00:00:00 19.7 5 Sudoeste 12 Sur 0 -- -- 37
2020-06-18 23:00:00 21 4 Norte 15 Norte 0 -- -- 35
2020-06-18 22:00:00 22.7 10 Norte 21 Noroeste 0 -- -- 33
2020-06-18 21:00:00 26.4 13 Noroeste 24 Oeste 0 -- -- 25
2020-06-18 20:00:00 27.8 12 Oeste 26 Oeste 0 -- -- 23
2020-06-18 19:00:00 26.2 14 Oeste 28 Oeste 0 -- -- 25
2020-06-18 18:00:00 27.2 8 Sudoeste 28 Sudoeste 0 -- -- 24
2020-06-18 17:00:00 28.3 11 Sudoeste 33 Sudoeste 0 -- -- 24
2020-06-18 16:00:00 29 12 Oeste 36 Oeste 0 -- -- 24
2020-06-18 15:00:00 28.1 17 Oeste 34 Sudoeste 0 -- -- 25
2020-06-18 14:00:00 26.9 9 Oeste 27 Oeste 0 -- -- 27
2020-06-18 13:00:00 26 12 Oeste 26 Sudoeste 0 -- -- 29
2020-06-18 12:00:00 24.3 9 Sudoeste 24 Oeste 0 -- -- 31
2020-06-18 11:00:00 22.8 8 Oeste 16 Sudoeste 0 -- -- 32
2020-06-18 10:00:00 20.5 5 Sudoeste 13 Sudoeste 0 -- -- 38
2020-06-18 09:00:00 17.7 5 Sudoeste 10 Sudoeste 0 -- -- 43
2020-06-18 08:00:00 15.1 6 Sur 8 Sur 0 -- -- 44
2020-06-18 07:00:00 13.5 5 Sur 9 Sur 0 -- -- 45
2020-06-18 06:00:00 14.6 5 Sudoeste 6 Sudoeste 0 -- -- 43
2020-06-18 05:00:00 15 6 Sudoeste 8 Oeste 0 -- -- 42
2020-06-18 04:00:00 15.4 5 Sur 7 Sur 0 -- -- 41
2020-06-18 03:00:00 15.9 4 Sur 5 Oeste 0 -- -- 40
2020-06-18 02:00:00 16.6 3 Oeste 6 Oeste 0 -- -- 38
2020-06-18 01:00:00 17.2 3 Oeste 8 Noroeste 0 -- -- 36
2020-06-18 00:00:00 17.8 4 Norte 10 Norte 0 -- -- 35
2020-06-17 23:00:00 18.4 5 Norte 13 Norte 0 -- -- 36
2020-06-17 22:00:00 20.5 6 Norte 25 Oeste 0 -- -- 33
2020-06-17 21:00:00 23.7 15 Noroeste 29 Oeste 0 -- -- 28
2020-06-17 20:00:00 25 17 Noroeste 33 Oeste 0 -- -- 26
2020-06-17 19:00:00 25.7 18 Noroeste 37 Oeste 0 -- -- 25
2020-06-17 18:00:00 26.3 22 Oeste 40 Noroeste 0 -- -- 23
2020-06-17 17:00:00 26.2 15 Oeste 42 Norte 0 -- -- 24
2020-06-17 16:00:00 26 17 Noroeste 43 Oeste 0 -- -- 25
2020-06-17 15:00:00 24.8 22 Oeste 48 Sudoeste 0 -- -- 31
2020-06-17 14:00:00 23.9 21 Oeste 44 Oeste 0 -- -- 34
2020-06-17 13:00:00 22.6 23 Sudoeste 37 Sudoeste 0 -- -- 41
2020-06-17 12:00:00 21.4 14 Oeste 32 Oeste 0 -- -- 48
2020-06-17 11:00:00 20 13 Oeste 26 Oeste 0 -- -- 50
2020-06-17 10:00:00 18.1 10 Oeste 19 Oeste 0 -- -- 57
2020-06-17 09:00:00 16.2 15 Oeste 21 Oeste 0 -- -- 62
2020-06-17 08:00:00 14.5 8 Sudoeste 16 Oeste 0 -- -- 67
2020-06-17 07:00:00 13.8 10 Oeste 17 Oeste 0 -- -- 70
2020-06-17 06:00:00 13.4 9 Sudoeste 14 Sudoeste 0 -- -- 71
2020-06-17 05:00:00 14 9 Sudoeste 12 Sudoeste 0 -- -- 68
2020-06-17 04:00:00 15.3 4 Sudoeste 12 Oeste 0 -- -- 64
2020-06-17 03:00:00 16.2 5 Oeste 17 Oeste 0 -- -- 60
2020-06-17 02:00:00 17.1 8 Oeste 23 Noroeste 0 -- -- 58
2020-06-17 01:00:00 17.9 13 Noroeste 19 Noroeste 0 -- -- 55
2020-06-17 00:00:00 18.8 10 Noroeste 19 Noroeste 0 -- -- 51
2020-06-16 23:00:00 19.7 10 Noroeste 23 Oeste 0 -- -- 47
2020-06-16 22:00:00 20.9 16 Noroeste 30 Oeste 0 -- -- 44
2020-06-16 21:00:00 22.7 18 Noroeste 39 Oeste 0 -- -- 40
2020-06-16 20:00:00 24.6 19 Noroeste 41 Noroeste 0 -- -- 36
2020-06-16 19:00:00 24.2 21 Noroeste 52 Oeste 0 -- -- 35
2020-06-16 18:00:00 25.4 23 Oeste 44 Oeste 0 -- -- 34
2020-06-16 17:00:00 25.2 22 Noroeste 48 Oeste 0 -- -- 34
2020-06-16 16:00:00 25.4 21 Noroeste 40 Oeste 0 -- -- 34
2020-06-16 15:00:00 25.4 24 Noroeste 42 Noroeste 0 -- -- 30
2020-06-16 14:00:00 24.8 19 Noroeste 37 Oeste 0 -- -- 36
2020-06-16 13:00:00 23.9 18 Oeste 34 Oeste 0 -- -- 36
2020-06-16 12:00:00 22.1 17 Oeste 34 Oeste 0 -- -- 41
2020-06-16 11:00:00 21.3 15 Oeste 25 Oeste 0 -- -- 46
2020-06-16 10:00:00 19.4 9 Oeste 19 Oeste 0 -- -- 51
2020-06-16 09:00:00 16.9 12 Oeste 19 Oeste 0 -- -- 59
2020-06-16 08:00:00 15.9 8 Oeste 20 Oeste 0 -- -- 59
2020-06-16 07:00:00 15.2 9 Oeste 15 Oeste 0 -- -- 57
2020-06-16 06:00:00 16.1 10 Oeste 15 Oeste 0 -- -- 50
2020-06-16 05:00:00 16.6 8 Oeste 14 Oeste 0 -- -- 47
2020-06-16 04:00:00 17.1 7 Oeste 12 Oeste 0 -- -- 44
2020-06-16 03:00:00 17.1 7 Sudoeste 10 Oeste 0 -- -- 42
2020-06-16 02:00:00 17.8 6 Oeste 12 Oeste 0 -- -- 40
2020-06-16 01:00:00 18.7 8 Oeste 14 Noroeste 0 -- -- 39
2020-06-16 00:00:00 19.8 8 Noroeste 15 Noroeste 0 -- -- 37
2020-06-15 23:00:00 20.3 7 Sudoeste 16 Noroeste 0 -- -- 37
2020-06-15 22:00:00 21.8 10 Noroeste 25 Noroeste 0 -- -- 34
2020-06-15 21:00:00 24.1 17 Noroeste 28 Noroeste 0 -- -- 30
2020-06-15 20:00:00 25.3 18 Noroeste 35 Norte 0 -- -- 29
2020-06-15 19:00:00 28.1 15 Oeste 34 Oeste 0 -- -- 25
2020-06-15 18:00:00 28 15 Oeste 35 Oeste 0 -- -- 27
2020-06-15 17:00:00 28.1 18 Noroeste 34 Oeste 0 -- -- 26
2020-06-15 16:00:00 27.5 17 Oeste 32 Sudoeste 0 -- -- 29
2020-06-15 15:00:00 26.4 16 Sudoeste 30 Sudoeste 0 -- -- 29
2020-06-15 14:00:00 25.2 13 Oeste 32 Oeste 0 -- -- 32
2020-06-15 13:00:00 23.7 16 Oeste 28 Oeste 0 -- -- 34
2020-06-15 12:00:00 22.1 8 Oeste 23 Sudoeste 0 -- -- 39
2020-06-15 11:00:00 20.2 8 Oeste 22 Oeste 0 -- -- 44
2020-06-15 10:00:00 17.9 13 Oeste 22 Oeste 0 -- -- 53
2020-06-15 09:00:00 15.5 10 Sur 17 Sur 0 -- -- 63
2020-06-15 08:00:00 12.9 7 Sur 14 Sur 0 -- -- 72
2020-06-15 07:00:00 10.1 5 Sur 11 Sur 0 -- -- 77
2020-06-15 06:00:00 10.5 6 Sur 13 Sur 0 -- -- 73
2020-06-15 05:00:00 11.6 5 Sur 12 Sur 0 -- -- 67
2020-06-15 04:00:00 12.7 9 Sur 11 Sur 0 -- -- 60
2020-06-15 03:00:00 14.2 7 Sur 11 Sur 0 -- -- 49
2020-06-15 02:00:00 16.4 5 Sudoeste 9 Oeste 0 -- -- 44
2020-06-15 01:00:00 16.9 5 Oeste 9 Noroeste 0 -- -- 42
2020-06-15 00:00:00 17.5 4 Noroeste 14 Norte 0 -- -- 41
2020-06-14 23:00:00 18.6 10 Norte 18 Norte 0 -- -- 39
2020-06-14 22:00:00 20.3 11 Norte 25 Norte 0 -- -- 36
2020-06-14 21:00:00 23.5 16 Noroeste 29 Noroeste 0 -- -- 31
2020-06-14 20:00:00 25.1 18 Noroeste 29 Noroeste 0 -- -- 28
2020-06-14 19:00:00 26.2 18 Noroeste 34 Oeste 0 -- -- 26
2020-06-14 18:00:00 26.6 14 Oeste 29 Oeste 0 -- -- 26
2020-06-14 17:00:00 26.4 14 Noroeste 34 Oeste 0 -- -- 27
2020-06-14 16:00:00 25.3 10 Oeste 29 Oeste 0 -- -- 29
2020-06-14 15:00:00 24.7 14 Noroeste 30 Oeste 0 -- -- 29
2020-06-14 14:00:00 23.7 15 Oeste 28 Oeste 0 -- -- 33
2020-06-14 13:00:00 22.4 9 Sudoeste 25 Oeste 0 -- -- 37
2020-06-14 12:00:00 21.5 6 Oeste 16 Oeste 0 -- -- 39
2020-06-14 11:00:00 20.2 6 Este 13 Este 0 -- -- 41
2020-06-14 10:00:00 18.8 6 Nordeste 17 Nordeste 0 -- -- 45
2020-06-14 09:00:00 16.1 10 Este 15 Este 0 -- -- 51
2020-06-14 08:00:00 13.6 8 Este 11 Nordeste 0 -- -- 57
2020-06-14 07:00:00 13 8 Nordeste 9 Nordeste 0 -- -- 57
2020-06-14 06:00:00 13.4 4 Este 5 Este 0 -- -- 54
2020-06-14 05:00:00 13.2 2 Sur 4 Sur 0 -- -- 56
2020-06-14 04:00:00 13.4 3 Sur 8 Sur 0 -- -- 56
2020-06-14 03:00:00 13.6 4 Sur 6 Sur 0 -- -- 53
2020-06-14 02:00:00 14.4 4 Sur 8 Sur 0 -- -- 49
2020-06-14 01:00:00 15.4 3 Noroeste 5 Noroeste 0 -- -- 46
2020-06-14 00:00:00 16.1 3 Noroeste 10 Noroeste 0 -- -- 44
2020-06-13 23:00:00 17.2 3 Oeste 21 Oeste 0 -- -- 42
2020-06-13 22:00:00 18.8 8 Oeste 26 Oeste 0 -- -- 39
2020-06-13 21:00:00 22 11 Oeste 23 Oeste 0 -- -- 32
2020-06-13 20:00:00 22.6 15 Oeste 28 Oeste 0 -- -- 32
2020-06-13 19:00:00 23.2 16 Oeste 32 Oeste 0 -- -- 31
2020-06-13 18:00:00 24.5 10 Oeste 31 Oeste 0 -- -- 28
2020-06-13 17:00:00 24.1 13 Oeste 34 Oeste 0 -- -- 30
2020-06-13 16:00:00 22.9 9 Sudoeste 30 Oeste 0 -- -- 31
2020-06-13 15:00:00 21.7 15 Oeste 27 Oeste 0 -- -- 33
2020-06-13 14:00:00 21 10 Sudoeste 31 Oeste 0 -- -- 36
2020-06-13 13:00:00 19.1 13 Oeste 28 Oeste 0 -- -- 40
2020-06-13 12:00:00 17.4 10 Oeste 26 Oeste 0 -- -- 50
2020-06-13 11:00:00 16 12 Noroeste 24 Oeste 0 -- -- 53
2020-06-13 10:00:00 14.1 13 Oeste 28 Oeste 0 -- -- 63
2020-06-13 09:00:00 12.2 13 Oeste 25 Oeste 0 -- -- 73
2020-06-13 08:00:00 10.1 12 Sudoeste 19 Oeste 0 -- -- 81
2020-06-13 07:00:00 9.4 9 Oeste 19 Oeste 0 -- -- 82
2020-06-13 06:00:00 10.1 14 Oeste 21 Oeste 0 -- -- 80
2020-06-13 05:00:00 10.8 13 Oeste 22 Oeste 0 -- -- 76
2020-06-13 04:00:00 11.5 11 Oeste 21 Oeste 0 -- -- 71
2020-06-13 03:00:00 11.9 11 Oeste 22 Oeste 0 -- -- 69
2020-06-13 02:00:00 12.1 8 Noroeste 30 Noroeste 0 -- -- 69
2020-06-13 01:00:00 13 21 Noroeste 36 Noroeste 0 -- -- 66
2020-06-13 00:00:00 15.4 11 Oeste 24 Noroeste 0 -- -- 48
2020-06-12 23:00:00 15.7 12 Oeste 31 Oeste 0 -- -- 46
2020-06-12 22:00:00 16.2 17 Sudoeste 35 Sudoeste 0 -- -- 45
2020-06-12 21:00:00 17.2 22 Oeste 37 Sudoeste 0 -- -- 43
2020-06-12 20:00:00 18.1 21 Oeste 37 Oeste 0 -- -- 39
2020-06-12 19:00:00 19 17 Oeste 42 Oeste 0 -- -- 38
2020-06-12 18:00:00 18.8 19 Oeste 42 Oeste 0 -- -- 39
2020-06-12 17:00:00 20 22 Oeste 41 Sudoeste 0 -- -- 37
2020-06-12 16:00:00 19.2 25 Oeste 46 Sudoeste 0 -- -- 38
2020-06-12 15:00:00 18.5 28 Sudoeste 53 Oeste 0 -- -- 41
2020-06-12 14:00:00 17.7 24 Oeste 43 Oeste 0 -- -- 45
2020-06-12 13:00:00 16.3 26 Oeste 42 Oeste 0 -- -- 48
2020-06-12 12:00:00 14.8 22 Oeste 43 Oeste 0 -- -- 53
2020-06-12 11:00:00 13 26 Oeste 39 Oeste 0 -- -- 62
2020-06-12 10:00:00 12 20 Oeste 36 Noroeste 0 -- -- 68
2020-06-12 09:00:00 11.2 14 Noroeste 26 Noroeste 0 -- -- 71
2020-06-12 08:00:00 9.8 8 Noroeste 26 Noroeste 0 -- -- 78
2020-06-12 07:00:00 10.4 10 Noroeste 27 Oeste 0 -- -- 83
2020-06-12 06:00:00 11 14 Oeste 27 Oeste 0 -- -- 83
2020-06-12 05:00:00 11.7 16 Oeste 31 Oeste 0.2 -- -- 85
2020-06-12 04:00:00 12 16 Oeste 38 Noroeste 1.6 -- -- 90
2020-06-12 03:00:00 13.6 18 Oeste 49 Sudoeste 1.4 -- -- 88
2020-06-12 02:00:00 14.6 28 Sudoeste 44 Sudoeste 0 -- -- 78
2020-06-12 01:00:00 15.5 27 Sudoeste 46 Sudoeste 0 -- -- 69
2020-06-12 00:00:00 16.4 28 Sudoeste 44 Oeste 0 -- -- 66